createdAt,value
2019-03-08T00:00:03.082Z,25.90
2019-03-08T00:00:43.445Z,26.27
2019-03-08T00:01:23.769Z,26.10
2019-03-08T00:01:56.802Z,26.00
2019-03-08T00:02:29.791Z,26.05
2019-03-08T00:03:02.923Z,26.75
2019-03-08T00:03:35.922Z,25.68
2019-03-08T00:04:08.983Z,26.55
2019-03-08T00:04:41.921Z,26.00
2019-03-08T00:05:15.009Z,26.33
2019-03-08T00:05:48.352Z,26.15
2019-03-08T00:06:21.427Z,26.73
2019-03-08T00:06:54.333Z,25.92
2019-03-08T00:07:27.488Z,27.10
2019-03-08T00:08:00.478Z,26.30
2019-03-08T00:08:33.528Z,25.88
2019-03-08T00:09:08.966Z,26.33
2019-03-08T00:09:43.746Z,26.17
2019-03-08T00:10:16.877Z,25.72
2019-03-08T00:10:49.937Z,26.35
2019-03-08T00:11:23.273Z,26.30
2019-03-08T00:11:57.385Z,26.05
2019-03-08T00:12:32.282Z,26.17
2019-03-08T00:13:05.499Z,26.30
2019-03-08T00:13:38.931Z,26.40
2019-03-08T00:14:11.991Z,26.73
2019-03-08T00:14:45.034Z,26.23
2019-03-08T00:15:18.101Z,26.00
2019-03-08T00:15:50.998Z,26.17
2019-03-08T00:16:23.935Z,26.12
2019-03-08T00:16:56.830Z,26.30
2019-03-08T00:17:29.880Z,25.92
2019-03-08T00:18:02.981Z,26.40
2019-03-08T00:18:35.961Z,26.23
2019-03-08T00:19:10.275Z,26.60
2019-03-08T00:19:43.283Z,26.12
2019-03-08T00:20:16.256Z,26.35
2019-03-08T00:20:49.299Z,26.45
2019-03-08T00:21:22.302Z,26.30
2019-03-08T00:21:55.090Z,26.77
2019-03-08T00:26:04.323Z,26.77
2019-03-08T00:26:37.477Z,26.82
2019-03-08T00:27:10.511Z,26.55
2019-03-08T00:27:43.538Z,26.95
2019-03-08T00:28:18.206Z,26.50
2019-03-08T00:28:51.393Z,26.33
2019-03-08T00:29:24.269Z,27.10
2019-03-08T00:29:57.307Z,26.60
2019-03-08T00:30:30.360Z,26.40
2019-03-08T00:31:03.408Z,26.40
2019-03-08T00:31:36.398Z,26.97
2019-03-08T00:32:09.444Z,26.37
2019-03-08T00:32:42.568Z,26.40
2019-03-08T00:33:15.602Z,27.00
2019-03-08T00:33:48.574Z,27.30
2019-03-08T00:34:21.733Z,26.68
2019-03-08T00:34:54.642Z,26.77
2019-03-08T00:35:27.708Z,26.93
2019-03-08T00:36:00.704Z,26.97
2019-03-08T00:36:33.761Z,26.45
2019-03-08T00:37:06.756Z,26.97
2019-03-08T00:41:08.131Z,27.22
2019-03-08T00:41:41.776Z,26.30
2019-03-08T00:42:15.159Z,26.73
2019-03-08T00:42:48.178Z,26.90
2019-03-08T00:43:21.645Z,27.22
2019-03-08T00:43:54.617Z,26.33
2019-03-08T00:44:27.674Z,27.07
2019-03-08T00:45:00.802Z,26.68
2019-03-08T00:45:34.062Z,26.68
2019-03-08T00:46:06.908Z,26.25
2019-03-08T00:46:39.946Z,26.97
2019-03-08T00:47:15.926Z,27.02
2019-03-08T00:47:50.520Z,27.27
2019-03-08T00:48:25.011Z,27.05
2019-03-08T00:48:57.936Z,27.20
2019-03-08T00:49:31.121Z,27.27
2019-03-08T00:50:04.836Z,27.07
2019-03-08T00:50:37.904Z,26.73
2019-03-08T00:51:10.873Z,26.77
2019-03-08T00:51:43.821Z,26.60
2019-03-08T00:52:16.841Z,26.77
2019-03-08T00:55:51.219Z,27.22
2019-03-08T00:56:24.142Z,27.32
2019-03-08T00:56:57.262Z,26.93
2019-03-08T00:57:30.367Z,26.97
2019-03-08T00:58:03.556Z,26.93
2019-03-08T00:58:36.521Z,26.70
2019-03-08T00:59:09.430Z,27.10
2019-03-08T00:59:42.345Z,26.57
2019-03-08T01:00:16.547Z,27.50
2019-03-08T01:00:49.608Z,26.12
2019-03-08T01:01:22.678Z,27.35
2019-03-08T01:01:55.532Z,26.90
2019-03-08T01:02:28.509Z,26.75
2019-03-08T01:03:01.615Z,26.45
2019-03-08T01:03:34.840Z,26.93
2019-03-08T01:04:07.853Z,26.60
2019-03-08T01:04:40.868Z,26.23
2019-03-08T01:05:15.023Z,27.10
2019-03-08T01:05:47.950Z,27.00
2019-03-08T01:06:20.999Z,27.30
2019-03-08T01:06:53.922Z,26.90
2019-03-08T01:07:27.100Z,27.30
2019-03-08T01:10:54.771Z,26.42
2019-03-08T01:11:28.094Z,27.15
2019-03-08T01:12:01.120Z,27.05
2019-03-08T01:12:34.162Z,26.77
2019-03-08T01:13:07.508Z,27.15
2019-03-08T01:13:40.557Z,26.80
2019-03-08T01:14:13.978Z,27.75
2019-03-08T01:14:47.066Z,26.70
2019-03-08T01:15:20.179Z,26.80
2019-03-08T01:15:54.153Z,26.73
2019-03-08T01:16:27.180Z,26.62
2019-03-08T01:17:00.244Z,26.77
2019-03-08T01:17:33.307Z,26.77
2019-03-08T01:18:06.393Z,26.68
2019-03-08T01:18:39.547Z,26.52
2019-03-08T01:19:12.500Z,26.90
2019-03-08T01:19:45.556Z,27.48
2019-03-08T01:20:20.218Z,26.17
2019-03-08T01:20:53.283Z,26.02
2019-03-08T01:21:26.283Z,24.95
2019-03-08T01:21:59.380Z,27.30
2019-03-08T01:22:32.544Z,26.70
2019-03-08T01:25:31.160Z,26.95
2019-03-08T01:26:04.583Z,26.95
2019-03-08T01:26:37.593Z,26.65
2019-03-08T01:27:10.521Z,26.82
2019-03-08T01:28:03.166Z,27.35
2019-03-08T01:28:36.790Z,27.20
2019-03-08T01:29:10.198Z,26.48
2019-03-08T01:29:43.132Z,27.20
2019-03-08T01:30:16.473Z,27.42
2019-03-08T01:30:49.507Z,27.22
2019-03-08T01:31:23.381Z,27.25
2019-03-08T01:31:56.422Z,26.93
2019-03-08T01:32:29.710Z,26.15
2019-03-08T01:33:02.975Z,27.40
2019-03-08T01:33:35.968Z,26.45
2019-03-08T01:34:08.990Z,26.52
2019-03-08T01:34:42.220Z,27.32
2019-03-08T01:35:15.278Z,26.97
2019-03-08T01:35:48.272Z,26.87
2019-03-08T01:36:21.225Z,27.32
2019-03-08T01:36:54.218Z,27.30
2019-03-08T01:37:27.081Z,27.35
2019-03-08T01:39:54.063Z,27.40
2019-03-08T01:40:27.672Z,27.85
2019-03-08T01:41:00.761Z,27.50
2019-03-08T01:41:33.818Z,26.87
2019-03-08T01:42:06.787Z,27.02
2019-03-08T01:42:39.819Z,27.60
2019-03-08T01:43:12.720Z,27.30
2019-03-08T01:43:45.680Z,27.65
2019-03-08T01:44:18.457Z,26.82
2019-03-08T01:44:51.659Z,26.97
2019-03-08T01:45:24.652Z,27.30
2019-03-08T01:45:57.701Z,27.82
2019-03-08T01:46:30.808Z,27.37
2019-03-08T01:47:03.863Z,27.75
2019-03-08T01:47:36.758Z,27.75
2019-03-08T01:48:09.585Z,28.38
2019-03-08T01:48:42.883Z,27.45
2019-03-08T01:49:15.879Z,27.62
2019-03-08T01:49:48.887Z,27.27
2019-03-08T01:50:21.890Z,26.70
2019-03-08T01:50:54.897Z,27.70
2019-03-08T01:51:27.903Z,27.35
2019-03-08T01:52:00.937Z,28.15
2019-03-08T01:52:33.971Z,27.07
2019-03-08T01:54:50.831Z,26.95
2019-03-08T01:55:24.013Z,26.82
2019-03-08T01:55:58.700Z,27.32
2019-03-08T01:56:31.898Z,26.33
2019-03-08T01:57:04.860Z,26.70
2019-03-08T01:57:38.159Z,26.42
2019-03-08T01:58:12.781Z,27.05
2019-03-08T01:58:46.098Z,26.73
2019-03-08T01:59:19.215Z,28.35
2019-03-08T01:59:52.335Z,26.73
2019-03-08T02:00:25.453Z,26.60
2019-03-08T02:00:58.431Z,26.62
2019-03-08T02:01:31.658Z,27.07
2019-03-08T02:02:04.655Z,27.22
2019-03-08T02:02:37.692Z,26.65
2019-03-08T02:03:10.722Z,28.17
2019-03-08T02:03:43.756Z,26.85
2019-03-08T02:04:16.647Z,27.10
2019-03-08T02:04:49.657Z,26.68
2019-03-08T02:05:22.666Z,26.52
2019-03-08T02:05:55.685Z,26.62
2019-03-08T02:06:28.603Z,27.30
2019-03-08T02:07:01.690Z,27.17
2019-03-08T02:07:34.579Z,27.07
2019-03-08T02:09:50.135Z,27.65
2019-03-08T02:10:23.142Z,27.13
2019-03-08T02:10:56.074Z,27.32
2019-03-08T02:11:29.375Z,26.30
2019-03-08T02:12:02.505Z,27.13
2019-03-08T02:12:35.517Z,27.90
2019-03-08T02:13:08.550Z,26.90
2019-03-08T02:13:41.667Z,27.62
2019-03-08T02:14:16.162Z,27.07
2019-03-08T02:14:49.173Z,27.77
2019-03-08T02:15:22.211Z,27.30
2019-03-08T02:15:55.405Z,27.13
2019-03-08T02:16:28.228Z,27.37
2019-03-08T02:17:01.201Z,28.47
2019-03-08T02:17:34.284Z,27.10
2019-03-08T02:18:07.291Z,27.77
2019-03-08T02:18:40.315Z,27.85
2019-03-08T02:19:13.232Z,27.10
2019-03-08T02:19:46.253Z,27.73
2019-03-08T02:20:20.473Z,27.82
2019-03-08T02:20:53.498Z,27.73
2019-03-08T02:21:26.486Z,27.32
2019-03-08T02:21:59.576Z,27.02
2019-03-08T02:22:32.484Z,27.25
2019-03-08T02:24:47.397Z,27.70
2019-03-08T02:25:20.512Z,26.37
2019-03-08T02:25:53.690Z,27.90
2019-03-08T02:26:27.795Z,28.42
2019-03-08T02:27:00.860Z,27.15
2019-03-08T02:27:33.865Z,27.95
2019-03-08T02:28:08.546Z,26.95
2019-03-08T02:28:41.493Z,26.40
2019-03-08T02:29:14.300Z,27.25
2019-03-08T02:29:47.299Z,26.42
2019-03-08T02:30:21.221Z,26.50
2019-03-08T02:30:54.214Z,27.52
2019-03-08T02:31:27.198Z,27.02
2019-03-08T02:32:01.126Z,27.17
2019-03-08T02:32:33.900Z,27.02
2019-03-08T02:33:07.293Z,27.60
2019-03-08T02:33:40.324Z,27.07
2019-03-08T02:34:13.518Z,27.55
2019-03-08T02:34:46.403Z,25.80
2019-03-08T02:35:19.846Z,27.67
2019-03-08T02:35:52.850Z,27.45
2019-03-08T02:36:25.911Z,27.55
2019-03-08T02:36:58.807Z,26.20
2019-03-08T02:37:31.608Z,27.35
2019-03-08T02:39:51.031Z,27.48
2019-03-08T02:40:27.794Z,26.57
2019-03-08T02:41:00.688Z,26.20
2019-03-08T02:41:33.717Z,26.80
2019-03-08T02:42:06.879Z,27.02
2019-03-08T02:42:39.879Z,27.22
2019-03-08T02:43:15.887Z,27.30
2019-03-08T02:43:48.932Z,27.05
2019-03-08T02:44:21.938Z,28.75
2019-03-08T02:44:54.967Z,25.75
2019-03-08T02:45:29.089Z,27.62
2019-03-08T02:46:02.118Z,27.77
2019-03-08T02:46:35.133Z,27.52
2019-03-08T02:47:08.261Z,26.80
2019-03-08T02:47:41.256Z,27.50
2019-03-08T02:48:14.331Z,26.68
2019-03-08T02:48:47.348Z,27.25
2019-03-08T02:49:20.436Z,27.80
2019-03-08T02:49:53.460Z,27.00
2019-03-08T02:50:26.392Z,27.82
2019-03-08T02:50:59.517Z,26.45
2019-03-08T02:51:32.464Z,27.15
2019-03-08T02:52:05.440Z,28.25
2019-03-08T02:52:38.516Z,26.62
2019-03-08T02:54:57.364Z,27.30
2019-03-08T02:55:30.369Z,27.32
2019-03-08T02:56:03.355Z,27.37
2019-03-08T02:56:36.379Z,26.87
2019-03-08T02:57:09.420Z,26.68
2019-03-08T02:57:42.418Z,27.48
2019-03-08T02:58:15.502Z,26.90
2019-03-08T02:58:48.534Z,27.80
2019-03-08T02:59:21.442Z,26.40
2019-03-08T02:59:55.808Z,26.95
2019-03-08T03:00:37.024Z,26.62
2019-03-08T03:01:09.928Z,27.13
2019-03-08T03:01:42.920Z,27.13
2019-03-08T03:02:15.946Z,27.17
2019-03-08T03:02:49.030Z,26.70
2019-03-08T03:03:22.001Z,26.77
2019-03-08T03:03:55.346Z,27.42
2019-03-08T03:04:28.270Z,26.45
2019-03-08T03:05:01.718Z,27.22
2019-03-08T03:05:34.730Z,26.05
2019-03-08T03:06:09.672Z,26.82
2019-03-08T03:06:42.887Z,26.42
2019-03-08T03:07:16.024Z,26.65
2019-03-08T03:07:49.031Z,26.95
2019-03-08T03:09:50.027Z,27.02
2019-03-08T03:10:22.974Z,27.07
2019-03-08T03:10:56.005Z,27.13
2019-03-08T03:11:29.033Z,27.35
2019-03-08T03:12:03.142Z,27.05
2019-03-08T03:12:35.940Z,26.85
2019-03-08T03:13:09.038Z,26.52
2019-03-08T03:13:42.088Z,26.97
2019-03-08T03:14:14.996Z,27.02
2019-03-08T03:14:48.050Z,27.13
2019-03-08T03:15:21.216Z,27.40
2019-03-08T03:15:54.210Z,27.55
2019-03-08T03:16:27.426Z,26.93
2019-03-08T03:17:00.900Z,27.45
2019-03-08T03:17:34.153Z,27.07
2019-03-08T03:18:07.174Z,27.22
2019-03-08T03:18:40.508Z,27.20
2019-03-08T03:19:14.629Z,27.30
2019-03-08T03:19:47.660Z,27.55
2019-03-08T03:20:20.729Z,26.80
2019-03-08T03:20:53.620Z,26.30
2019-03-08T03:21:26.679Z,27.80
2019-03-08T03:21:59.600Z,26.37
2019-03-08T03:22:32.552Z,27.80
2019-03-08T03:23:05.420Z,26.82
2019-03-08T03:25:04.254Z,27.70
2019-03-08T03:25:39.121Z,27.62
2019-03-08T03:26:12.096Z,26.85
2019-03-08T03:26:45.214Z,26.40
2019-03-08T03:27:18.283Z,27.20
2019-03-08T03:27:51.852Z,27.22
2019-03-08T03:28:24.734Z,27.98
2019-03-08T03:28:57.712Z,27.52
2019-03-08T03:29:32.032Z,26.73
2019-03-08T03:30:05.838Z,27.15
2019-03-08T03:30:38.789Z,27.73
2019-03-08T03:31:13.369Z,26.85
2019-03-08T03:31:46.285Z,28.10
2019-03-08T03:32:19.346Z,27.17
2019-03-08T03:32:52.279Z,26.85
2019-03-08T03:33:25.239Z,26.82
2019-03-08T03:33:58.195Z,26.75
2019-03-08T03:34:31.202Z,27.45
2019-03-08T03:35:04.634Z,26.52
2019-03-08T03:35:37.736Z,27.30
2019-03-08T03:36:10.733Z,27.30
2019-03-08T03:36:43.716Z,26.65
2019-03-08T03:37:16.791Z,27.02
2019-03-08T03:37:49.967Z,27.02
2019-03-08T03:39:43.881Z,27.52
2019-03-08T03:40:16.939Z,26.57
2019-03-08T03:40:49.962Z,26.68
2019-03-08T03:41:22.918Z,27.20
2019-03-08T03:41:56.000Z,26.48
2019-03-08T03:42:30.214Z,26.00
2019-03-08T03:43:03.934Z,27.50
2019-03-08T03:43:37.022Z,26.62
2019-03-08T03:44:10.060Z,27.37
2019-03-08T03:44:43.324Z,28.10
2019-03-08T03:45:16.732Z,28.20
2019-03-08T03:45:49.810Z,27.02
2019-03-08T03:46:22.994Z,26.75
2019-03-08T03:46:56.020Z,27.22
2019-03-08T03:47:28.958Z,27.35
2019-03-08T03:48:02.023Z,27.85
2019-03-08T03:48:35.172Z,27.00
2019-03-08T03:49:08.180Z,26.85
2019-03-08T03:49:41.262Z,27.35
2019-03-08T03:50:15.024Z,28.05
2019-03-08T03:50:49.173Z,27.48
2019-03-08T03:51:22.050Z,27.02
2019-03-08T03:51:55.249Z,26.23
2019-03-08T03:52:28.057Z,27.77
2019-03-08T03:53:01.364Z,27.17
2019-03-08T03:53:52.422Z,25.57
2019-03-08T03:54:25.235Z,26.05
2019-03-08T03:54:58.354Z,27.13
2019-03-08T03:55:31.364Z,26.52
2019-03-08T03:56:04.382Z,27.05
2019-03-08T03:56:37.514Z,27.40
2019-03-08T03:57:10.436Z,26.80
2019-03-08T03:57:43.430Z,26.80
2019-03-08T03:58:16.222Z,26.85
2019-03-08T03:58:49.152Z,26.35
2019-03-08T03:59:22.084Z,26.80
2019-03-08T03:59:55.274Z,26.95
2019-03-08T04:00:28.367Z,27.52
2019-03-08T04:01:18.704Z,27.30
2019-03-08T04:01:51.610Z,26.97
2019-03-08T04:02:24.526Z,28.07
2019-03-08T04:02:57.557Z,27.02
2019-03-08T04:03:30.614Z,27.20
2019-03-08T04:04:03.687Z,26.65
2019-03-08T04:04:36.912Z,26.95
2019-03-08T04:05:10.093Z,27.52
2019-03-08T04:05:43.083Z,27.00
2019-03-08T04:06:16.108Z,27.73
2019-03-08T04:06:49.023Z,27.37
2019-03-08T04:07:21.938Z,26.97
2019-03-08T04:07:54.844Z,25.77
2019-03-08T04:08:46.210Z,26.80
2019-03-08T04:09:19.164Z,26.05
2019-03-08T04:09:52.297Z,25.60
2019-03-08T04:10:25.204Z,27.17
2019-03-08T04:10:58.140Z,26.87
2019-03-08T04:11:31.160Z,26.68
2019-03-08T04:12:04.186Z,26.17
2019-03-08T04:12:37.206Z,26.62
2019-03-08T04:13:10.264Z,25.85
2019-03-08T04:13:43.179Z,26.30
2019-03-08T04:14:16.259Z,27.10
2019-03-08T04:14:49.198Z,27.00
2019-03-08T04:15:22.385Z,26.42
2019-03-08T04:15:55.452Z,26.07
2019-03-08T04:16:28.404Z,27.60
2019-03-08T04:17:01.548Z,26.68
2019-03-08T04:17:34.605Z,26.70
2019-03-08T04:18:07.975Z,27.25
2019-03-08T04:18:40.920Z,26.50
2019-03-08T04:19:13.993Z,26.85
2019-03-08T04:19:48.745Z,27.73
2019-03-08T04:20:23.062Z,26.77
2019-03-08T04:20:55.936Z,27.62
2019-03-08T04:21:30.114Z,27.27
2019-03-08T04:22:03.281Z,27.27
2019-03-08T04:22:36.335Z,26.97
2019-03-08T04:23:09.312Z,27.15
2019-03-08T04:23:42.358Z,27.05
2019-03-08T04:24:16.900Z,27.58
2019-03-08T04:24:51.396Z,27.37
2019-03-08T04:25:24.372Z,27.05
2019-03-08T04:25:57.482Z,26.75
2019-03-08T04:26:30.448Z,26.82
2019-03-08T04:27:03.558Z,26.85
2019-03-08T04:27:36.602Z,27.02
2019-03-08T04:28:11.125Z,27.15
2019-03-08T04:28:44.171Z,27.05
2019-03-08T04:29:17.249Z,26.95
2019-03-08T04:29:50.174Z,27.42
2019-03-08T04:30:23.177Z,26.90
2019-03-08T04:30:56.080Z,27.67
2019-03-08T04:31:28.902Z,27.80
2019-03-08T04:32:01.931Z,26.45
2019-03-08T04:32:34.724Z,28.05
2019-03-08T04:33:07.722Z,27.58
2019-03-08T04:33:41.726Z,27.52
2019-03-08T04:34:14.743Z,27.67
2019-03-08T04:34:47.786Z,26.75
2019-03-08T04:35:20.831Z,27.48
2019-03-08T04:35:53.750Z,28.00
2019-03-08T04:36:26.791Z,26.77
2019-03-08T04:36:59.681Z,27.42
2019-03-08T04:37:33.105Z,26.40
2019-03-08T04:38:06.110Z,27.05
2019-03-08T04:38:39.116Z,27.20
2019-03-08T04:39:12.100Z,26.82
2019-03-08T04:39:45.374Z,26.70
2019-03-08T04:40:18.289Z,26.97
2019-03-08T04:40:51.418Z,26.57
2019-03-08T04:41:24.421Z,26.77
2019-03-08T04:41:57.456Z,27.17
2019-03-08T04:42:30.352Z,28.17
2019-03-08T04:43:03.466Z,26.62
2019-03-08T04:43:38.082Z,25.90
2019-03-08T04:44:10.984Z,26.95
2019-03-08T04:44:43.874Z,26.35
2019-03-08T04:45:16.911Z,26.90
2019-03-08T04:45:49.862Z,26.95
2019-03-08T04:46:22.902Z,26.65
2019-03-08T04:46:55.941Z,26.20
2019-03-08T04:47:28.760Z,26.62
2019-03-08T04:48:01.786Z,26.57
2019-03-08T04:48:34.737Z,25.52
2019-03-08T04:49:07.661Z,26.00
2019-03-08T04:49:40.574Z,26.77
2019-03-08T04:50:13.922Z,25.92
2019-03-08T04:50:46.830Z,25.80
2019-03-08T04:51:20.058Z,25.80
2019-03-08T04:51:54.082Z,27.35
2019-03-08T04:52:27.320Z,26.30
2019-03-08T04:53:00.279Z,26.15
2019-03-08T04:53:33.467Z,25.30
2019-03-08T04:58:11.852Z,26.75
2019-03-08T04:58:44.777Z,27.17
2019-03-08T04:59:17.834Z,27.25
2019-03-08T04:59:50.636Z,26.62
2019-03-08T05:00:23.935Z,26.80
2019-03-08T05:00:56.922Z,26.42
2019-03-08T05:01:29.960Z,26.27
2019-03-08T05:02:02.866Z,26.33
2019-03-08T05:02:35.826Z,25.65
2019-03-08T05:03:08.734Z,26.97
2019-03-08T05:03:41.816Z,26.73
2019-03-08T05:04:14.709Z,26.50
2019-03-08T05:04:47.744Z,26.12
2019-03-08T05:05:20.672Z,26.15
2019-03-08T05:05:53.836Z,25.60
2019-03-08T05:06:26.638Z,26.25
2019-03-08T05:06:59.683Z,26.42
2019-03-08T05:07:32.678Z,25.97
2019-03-08T05:08:05.529Z,26.23
2019-03-08T05:08:38.541Z,27.22
2019-03-08T05:12:45.924Z,26.52
2019-03-08T05:13:18.920Z,26.75
2019-03-08T05:13:52.082Z,25.90
2019-03-08T05:14:24.958Z,25.85
2019-03-08T05:14:57.910Z,26.75
2019-03-08T05:15:30.869Z,26.20
2019-03-08T05:16:03.859Z,26.00
2019-03-08T05:16:36.738Z,26.62
2019-03-08T05:17:10.590Z,25.95
2019-03-08T05:17:43.658Z,26.45
2019-03-08T05:18:16.668Z,26.73
2019-03-08T05:18:49.668Z,26.40
2019-03-08T05:19:22.694Z,26.07
2019-03-08T05:19:55.794Z,25.85
2019-03-08T05:20:28.840Z,25.52
2019-03-08T05:21:02.139Z,26.00
2019-03-08T05:21:36.712Z,26.37
2019-03-08T05:22:09.898Z,25.65
2019-03-08T05:22:42.838Z,26.52
2019-03-08T05:23:15.721Z,25.77
2019-03-08T05:23:49.710Z,25.75
2019-03-08T05:27:22.484Z,26.25
2019-03-08T05:27:55.532Z,24.90
2019-03-08T05:28:28.324Z,25.02
2019-03-08T05:29:01.684Z,24.77
2019-03-08T05:29:34.658Z,25.12
2019-03-08T05:30:09.160Z,24.72
2019-03-08T05:30:42.048Z,24.47
2019-03-08T05:31:14.995Z,24.15
2019-03-08T05:31:47.878Z,24.27
2019-03-08T05:32:20.830Z,23.83
2019-03-08T05:32:53.626Z,24.00
2019-03-08T05:33:26.708Z,24.95
2019-03-08T05:33:59.526Z,24.20
2019-03-08T05:34:32.494Z,23.98
2019-03-08T05:35:06.181Z,24.37
2019-03-08T05:35:39.176Z,24.30
2019-03-08T05:36:11.935Z,24.25
2019-03-08T05:36:44.984Z,24.67
2019-03-08T05:37:17.961Z,24.25
2019-03-08T05:37:50.998Z,24.60
2019-03-08T05:38:23.898Z,24.30
2019-03-08T05:38:56.830Z,24.98
2019-03-08T05:39:29.824Z,24.25
2019-03-08T05:40:03.153Z,24.30
2019-03-08T05:40:36.241Z,24.37
2019-03-08T05:41:09.243Z,24.15
2019-03-08T05:41:42.118Z,24.30
2019-03-08T05:42:15.324Z,24.30
2019-03-08T05:42:48.499Z,24.57
2019-03-08T05:43:21.550Z,24.50
2019-03-08T05:43:54.724Z,24.57
2019-03-08T05:44:27.524Z,24.67
2019-03-08T05:45:00.827Z,24.50
2019-03-08T05:45:33.767Z,24.70
2019-03-08T05:46:06.774Z,24.82
2019-03-08T05:46:39.802Z,24.50
2019-03-08T05:47:12.604Z,24.67
2019-03-08T05:47:45.671Z,24.60
2019-03-08T05:48:18.574Z,24.45
2019-03-08T05:48:51.562Z,24.67
2019-03-08T05:49:24.463Z,24.70
2019-03-08T05:49:57.266Z,24.50
2019-03-08T05:50:30.286Z,24.52
2019-03-08T05:51:03.413Z,24.92
2019-03-08T05:51:36.380Z,24.72
2019-03-08T05:52:09.359Z,24.77
2019-03-08T05:52:43.367Z,24.98
2019-03-08T05:53:16.206Z,25.25
2019-03-08T05:53:49.276Z,25.17
2019-03-08T05:56:46.504Z,24.87
2019-03-08T05:57:19.428Z,24.95
2019-03-08T05:57:52.336Z,24.37
2019-03-08T05:58:25.282Z,25.27
2019-03-08T05:58:58.282Z,24.70
2019-03-08T05:59:31.140Z,24.80
2019-03-08T06:00:04.821Z,25.02
2019-03-08T06:00:38.208Z,25.10
2019-03-08T06:01:11.046Z,24.77
2019-03-08T06:01:44.053Z,24.70
2019-03-08T06:02:17.380Z,25.05
2019-03-08T06:02:50.510Z,24.85
2019-03-08T06:03:23.747Z,24.72
2019-03-08T06:03:56.657Z,24.20
2019-03-08T06:04:29.810Z,24.75
2019-03-08T06:05:03.289Z,24.82
2019-03-08T06:05:36.212Z,24.00
2019-03-08T06:06:09.224Z,24.23
2019-03-08T06:06:42.310Z,25.40
2019-03-08T06:07:15.202Z,24.75
2019-03-08T06:07:48.036Z,24.85
2019-03-08T06:08:22.136Z,25.00
2019-03-08T06:08:55.106Z,25.05
2019-03-08T06:11:37.838Z,25.10
2019-03-08T06:12:10.854Z,25.70
2019-03-08T06:12:43.740Z,25.50
2019-03-08T06:13:16.751Z,25.48
2019-03-08T06:13:49.732Z,25.23
2019-03-08T06:14:22.644Z,24.63
2019-03-08T06:14:56.966Z,25.32
2019-03-08T06:15:30.102Z,25.70
2019-03-08T06:16:04.247Z,25.43
2019-03-08T06:16:37.215Z,25.25
2019-03-08T06:17:10.315Z,25.17
2019-03-08T06:17:43.168Z,25.43
2019-03-08T06:18:16.271Z,25.88
2019-03-08T06:18:49.291Z,25.32
2019-03-08T06:19:22.323Z,24.92
2019-03-08T06:19:55.420Z,24.70
2019-03-08T06:20:28.429Z,25.50
2019-03-08T06:21:01.348Z,25.55
2019-03-08T06:21:34.317Z,26.20
2019-03-08T06:22:07.305Z,25.57
2019-03-08T06:22:40.200Z,25.57
2019-03-08T06:23:13.237Z,25.75
2019-03-08T06:23:46.237Z,25.45
2019-03-08T06:26:15.187Z,25.25
2019-03-08T06:26:48.070Z,25.70
2019-03-08T06:27:21.007Z,25.20
2019-03-08T06:27:54.105Z,25.12
2019-03-08T06:28:27.148Z,25.85
2019-03-08T06:29:00.132Z,25.70
2019-03-08T06:29:33.044Z,25.23
2019-03-08T06:30:06.072Z,25.77
2019-03-08T06:30:39.860Z,25.85
2019-03-08T06:31:12.750Z,26.10
2019-03-08T06:31:45.708Z,25.55
2019-03-08T06:32:18.614Z,25.95
2019-03-08T06:32:51.778Z,26.23
2019-03-08T06:33:24.777Z,25.80
2019-03-08T06:33:57.803Z,25.70
2019-03-08T06:34:30.796Z,25.92
2019-03-08T06:35:03.961Z,25.62
2019-03-08T06:35:36.986Z,25.55
2019-03-08T06:36:11.488Z,26.10
2019-03-08T06:36:44.481Z,24.80
2019-03-08T06:37:17.531Z,25.68
2019-03-08T06:37:50.751Z,25.45
2019-03-08T06:38:23.676Z,25.72
2019-03-08T06:38:56.992Z,24.92
2019-03-08T06:41:12.383Z,25.55
2019-03-08T06:41:45.298Z,25.95
2019-03-08T06:42:18.422Z,25.60
2019-03-08T06:42:51.419Z,25.50
2019-03-08T06:43:24.405Z,25.23
2019-03-08T06:43:57.290Z,25.68
2019-03-08T06:44:30.296Z,25.77
2019-03-08T06:45:04.345Z,25.62
2019-03-08T06:45:37.269Z,25.50
2019-03-08T06:46:10.278Z,25.43
2019-03-08T06:46:43.242Z,25.43
2019-03-08T06:47:16.220Z,26.20
2019-03-08T06:47:50.314Z,26.15
2019-03-08T06:48:23.223Z,26.40
2019-03-08T06:48:56.170Z,25.62
2019-03-08T06:49:29.268Z,26.10
2019-03-08T06:50:02.539Z,25.88
2019-03-08T06:50:36.520Z,26.05
2019-03-08T06:51:09.614Z,25.77
2019-03-08T06:51:42.413Z,25.52
2019-03-08T06:52:15.388Z,25.62
2019-03-08T06:52:48.406Z,25.37
2019-03-08T06:53:21.354Z,25.88
2019-03-08T06:53:54.360Z,26.42
2019-03-08T06:56:09.806Z,26.10
2019-03-08T06:56:42.710Z,26.07
2019-03-08T06:57:16.072Z,25.35
2019-03-08T06:57:58.886Z,26.15
2019-03-08T06:59:03.543Z,25.43
2019-03-08T06:59:47.700Z,26.25
2019-03-08T07:00:58.786Z,25.95
2019-03-08T07:01:35.202Z,26.15
2019-03-08T07:02:10.098Z,25.75
2019-03-08T07:02:43.088Z,26.52
2019-03-08T07:03:16.002Z,25.60
2019-03-08T07:03:48.886Z,26.02
2019-03-08T07:04:23.249Z,26.33
2019-03-08T07:04:56.168Z,26.12
2019-03-08T07:05:29.200Z,25.97
2019-03-08T07:06:02.200Z,26.05
2019-03-08T07:06:36.282Z,25.77
2019-03-08T07:07:09.192Z,25.92
2019-03-08T07:07:42.376Z,25.92
2019-03-08T07:08:15.370Z,26.50
2019-03-08T07:08:50.408Z,25.27
2019-03-08T07:10:47.401Z,26.20
2019-03-08T07:11:20.411Z,26.10
2019-03-08T07:11:53.308Z,26.20
2019-03-08T07:12:26.348Z,25.80
2019-03-08T07:13:03.131Z,25.75
2019-03-08T07:13:34.167Z,26.25
2019-03-08T07:14:07.068Z,25.80
2019-03-08T07:14:39.931Z,25.95
2019-03-08T07:15:13.074Z,26.12
2019-03-08T07:15:46.414Z,26.23
2019-03-08T07:16:19.337Z,25.60
2019-03-08T07:16:52.294Z,26.10
2019-03-08T07:17:25.312Z,26.35
2019-03-08T07:17:59.934Z,26.20
2019-03-08T07:18:32.916Z,26.05
2019-03-08T07:19:06.048Z,26.30
2019-03-08T07:19:48.746Z,26.40
2019-03-08T07:20:29.547Z,26.02
2019-03-08T07:21:11.691Z,26.50
2019-03-08T07:22:07.189Z,26.33
2019-03-08T07:22:59.646Z,25.92
2019-03-08T07:23:39.595Z,26.15
2019-03-08T07:25:54.865Z,25.75
2019-03-08T07:26:45.789Z,25.52
2019-03-08T07:27:42.512Z,25.88
2019-03-08T07:28:26.798Z,26.02
2019-03-08T07:29:19.335Z,25.62
2019-03-08T07:30:13.102Z,25.65
2019-03-08T07:31:14.822Z,25.80
2019-03-08T07:32:17.662Z,25.88
2019-03-08T07:33:00.442Z,26.07
2019-03-08T07:33:59.564Z,25.70
2019-03-08T07:34:43.980Z,25.08
2019-03-08T07:35:36.654Z,25.80
2019-03-08T07:36:17.882Z,25.52
2019-03-08T07:37:16.142Z,25.77
2019-03-08T07:38:08.842Z,25.92
2019-03-08T07:38:53.428Z,25.72
2019-03-08T07:44:26.226Z,25.72
2019-03-08T07:45:18.770Z,26.00
2019-03-08T07:46:10.230Z,25.88
2019-03-08T07:46:59.524Z,25.77
2019-03-08T07:47:55.111Z,26.55
2019-03-08T07:48:56.892Z,25.70
2019-03-08T07:49:48.237Z,25.72
2019-03-08T07:50:40.937Z,25.77
2019-03-08T07:51:29.328Z,26.10
2019-03-08T07:52:29.328Z,26.12
2019-03-08T07:53:24.709Z,26.07
2019-03-08T07:54:15.934Z,25.27
2019-03-08T07:55:01.718Z,25.35
2019-03-08T07:55:54.992Z,25.37
2019-03-08T07:56:47.616Z,25.17
2019-03-08T07:57:55.580Z,25.97
2019-03-08T07:58:37.686Z,25.23
2019-03-08T07:59:30.833Z,24.87
2019-03-08T08:00:23.525Z,24.95
2019-03-08T08:01:16.237Z,25.32
2019-03-08T08:01:58.182Z,24.87
2019-03-08T08:02:48.979Z,25.27
2019-03-08T08:03:53.666Z,24.92
2019-03-08T08:04:54.224Z,25.70
2019-03-08T08:05:42.342Z,25.68
2019-03-08T08:06:29.708Z,25.32
2019-03-08T08:07:21.070Z,25.30
2019-03-08T08:08:03.384Z,26.00
2019-03-08T08:08:56.110Z,24.82
2019-03-08T08:13:04.905Z,25.82
2019-03-08T08:13:57.464Z,25.70
2019-03-08T08:14:40.252Z,25.20
2019-03-08T08:15:22.487Z,25.52
2019-03-08T08:16:06.761Z,24.50
2019-03-08T08:17:00.940Z,25.25
2019-03-08T08:17:53.264Z,25.97
2019-03-08T08:18:44.572Z,25.72
2019-03-08T08:19:37.086Z,26.30
2019-03-08T08:20:31.098Z,25.25
2019-03-08T08:21:29.710Z,25.50
2019-03-08T08:22:26.154Z,25.30
2019-03-08T08:23:34.265Z,26.37
2019-03-08T08:24:13.998Z,25.65
2019-03-08T08:25:09.576Z,25.97
2019-03-08T08:26:02.132Z,25.80
2019-03-08T08:26:43.420Z,26.07
2019-03-08T08:27:22.930Z,25.75
2019-03-08T08:28:14.424Z,25.85
2019-03-08T08:29:09.880Z,26.35
2019-03-08T08:29:54.764Z,25.57
2019-03-08T08:30:46.192Z,26.45
2019-03-08T08:31:44.267Z,26.12
2019-03-08T08:32:43.159Z,26.27
2019-03-08T08:33:30.581Z,25.88
2019-03-08T08:34:22.058Z,26.20
2019-03-08T08:35:02.309Z,25.85